Time;durP1;ratioP1;P1;durP2;ratioP2;P2;SDS_P1;SDS_P2;PMS_P1;PMS_P2;Temp;Humidity;BMP_temperature;BMP_pressure;BME280_temperature;BME280_humidity;BME280_pressure;Samples;Min_cycle;Max_cycle;Signal;HPM_P1;HPM_P2
2024/02/22 00:01:00;;;;;;;0.50;0.50;;;10.70;99.90;;;;;;4967161;28;20466;-78
2024/02/22 00:03:27;;;;;;;2.00;0.60;;;10.60;99.90;;;;;;4966710;28;20445;-78
2024/02/22 00:05:55;;;;;;;1.00;0.47;;;10.50;99.90;;;;;;4967455;28;20450;-78
2024/02/22 00:08:22;;;;;;;0.60;0.40;;;10.50;99.90;;;;;;4967365;28;20442;-78
2024/02/22 00:10:48;;;;;;;0.60;0.50;;;10.40;99.90;;;;;;4967256;29;20470;-78
2024/02/22 00:13:16;;;;;;;3.43;0.40;;;10.40;99.90;;;;;;4967761;29;20458;-78
2024/02/22 00:15:42;;;;;;;0.70;0.63;;;10.30;99.90;;;;;;4968337;29;20458;-78
2024/02/22 00:18:09;;;;;;;1.27;0.60;;;10.30;99.90;;;;;;4967949;28;20461;-78
2024/02/22 00:20:36;;;;;;;0.50;0.50;;;10.30;99.90;;;;;;4967373;29;20443;-78
2024/02/22 00:23:05;;;;;;;2.70;0.83;;;10.30;99.90;;;;;;4968607;29;20435;-79
2024/02/22 00:25:32;;;;;;;0.90;0.80;;;10.20;99.90;;;;;;4969987;29;20516;-79
2024/02/22 00:27:59;;;;;;;0.43;0.43;;;10.20;99.90;;;;;;4968445;28;20454;-79
2024/02/22 00:30:26;;;;;;;0.70;0.70;;;10.20;99.90;;;;;;4968701;29;20490;-79
2024/02/22 00:32:53;;;;;;;0.50;0.43;;;10.20;99.90;;;;;;4968148;29;20964;-79
2024/02/22 00:35:20;;;;;;;0.80;0.40;;;10.20;99.90;;;;;;4968277;29;20461;-78
2024/02/22 00:37:45;;;;;;;0.80;0.47;;;10.20;99.90;;;;;;4967814;29;20457;-78
2024/02/22 00:40:14;;;;;;;0.70;0.60;;;10.20;99.90;;;;;;4967582;28;20434;-78
2024/02/22 00:42:41;;;;;;;1.07;0.50;;;10.20;99.90;;;;;;4967140;28;20235;-78
2024/02/22 00:45:08;;;;;;;1.00;0.60;;;10.10;99.90;;;;;;4966509;29;20461;-78
2024/02/22 00:47:35;;;;;;;0.53;0.40;;;10.10;99.90;;;;;;4966633;29;20455;-78
2024/02/22 00:50:02;;;;;;;0.50;0.50;;;10.00;99.90;;;;;;4966349;29;20493;-78
2024/02/22 00:52:29;;;;;;;0.77;0.50;;;10.00;99.90;;;;;;4966523;29;20465;-78
2024/02/22 00:54:56;;;;;;;1.00;0.77;;;10.00;99.90;;;;;;4966687;28;20450;-78
2024/02/22 00:57:24;;;;;;;0.40;0.40;;;9.90;99.90;;;;;;4965735;29;20450;-78
2024/02/22 00:59:51;;;;;;;0.40;0.40;;;9.90;99.90;;;;;;4965410;28;20451;-78
2024/02/22 01:02:18;;;;;;;0.50;0.40;;;9.90;99.90;;;;;;4964693;29;20470;-78
2024/02/22 01:04:45;;;;;;;0.73;0.50;;;9.90;99.90;;;;;;4964862;28;20454;-78
2024/02/22 01:07:12;;;;;;;0.50;0.50;;;9.80;99.90;;;;;;4965143;28;20446;-78
2024/02/22 01:09:38;;;;;;;0.40;0.40;;;9.80;99.90;;;;;;4964778;28;20482;-78
2024/02/22 01:12:05;;;;;;;2.00;0.93;;;9.70;99.90;;;;;;4964494;28;20470;-78
2024/02/22 01:14:33;;;;;;;0.40;0.40;;;9.70;99.90;;;;;;4966507;28;20445;-78
2024/02/22 01:17:00;;;;;;;0.50;0.50;;;9.70;99.90;;;;;;4968011;29;20457;-78
2024/02/22 01:19:27;;;;;;;0.50;0.50;;;9.60;99.90;;;;;;4967717;28;20443;-78
2024/02/22 01:21:53;;;;;;;1.00;0.80;;;9.70;99.90;;;;;;4966846;28;20486;-78
2024/02/22 01:24:20;;;;;;;0.40;0.40;;;9.60;99.90;;;;;;4965144;28;20498;-78
2024/02/22 01:26:47;;;;;;;0.60;0.60;;;9.60;99.90;;;;;;4964198;28;20452;-78
2024/02/22 01:29:14;;;;;;;0.97;0.50;;;9.50;99.90;;;;;;4967833;29;20482;-79
2024/02/22 01:31:42;;;;;;;0.40;0.40;;;9.50;99.90;;;;;;4970533;28;20865;-79
2024/02/22 01:34:08;;;;;;;0.60;0.60;;;9.40;99.90;;;;;;4970517;28;20458;-79
2024/02/22 01:36:35;;;;;;;1.00;0.77;;;9.40;99.90;;;;;;4968972;28;20446;-79
2024/02/22 01:39:04;;;;;;;4.33;0.60;;;9.40;99.90;;;;;;4969475;28;20442;-79
2024/02/22 01:41:30;;;;;;;0.40;0.40;;;9.40;99.90;;;;;;4970850;28;20478;-79
2024/02/22 01:43:57;;;;;;;0.40;0.40;;;9.40;99.90;;;;;;4971412;29;20465;-79
2024/02/22 01:46:24;;;;;;;1.90;0.83;;;9.50;99.90;;;;;;4971474;29;20439;-79
2024/02/22 01:48:52;;;;;;;0.50;0.50;;;9.50;99.90;;;;;;4971040;29;20884;-79
2024/02/22 01:51:20;;;;;;;1.03;0.40;;;9.40;99.90;;;;;;4969972;28;20469;-79
2024/02/22 01:53:49;;;;;;;0.53;0.40;;;9.40;99.90;;;;;;4969208;28;20450;-79
2024/02/22 01:56:17;;;;;;;0.60;0.50;;;9.40;99.90;;;;;;4969799;28;20450;-79
2024/02/22 01:58:44;;;;;;;2.53;0.80;;;9.40;99.90;;;;;;4968357;29;20642;-79
2024/02/22 02:01:11;;;;;;;0.60;0.60;;;9.40;99.90;;;;;;4968233;28;20473;-79
2024/02/22 02:03:39;;;;;;;0.50;0.40;;;9.30;99.90;;;;;;4968686;28;20473;-79
2024/02/22 02:06:07;;;;;;;2.80;0.70;;;9.30;99.90;;;;;;4969717;28;20895;-79
2024/02/22 02:08:36;;;;;;;1.40;0.50;;;9.30;99.90;;;;;;4968877;29;20455;-79
2024/02/22 02:11:02;;;;;;;0.40;0.40;;;9.30;99.90;;;;;;4968630;28;21056;-79
2024/02/22 02:13:29;;;;;;;0.40;0.40;;;9.30;99.90;;;;;;4969319;29;20446;-79
2024/02/22 02:15:56;;;;;;;0.37;0.33;;;9.20;99.90;;;;;;4969328;29;20442;-79
2024/02/22 02:18:23;;;;;;;0.40;0.30;;;9.20;99.90;;;;;;4969093;28;20446;-79
2024/02/22 02:20:57;;;;;;;0.40;0.40;;;9.20;99.90;;;;;;4969525;29;20832;-79
2024/02/22 02:23:44;;;;;;;0.97;0.60;;;9.10;99.90;;;;;;4968318;29;20429;-79
2024/02/22 02:26:13;;;;;;;0.40;0.37;;;9.10;99.90;;;;;;4967774;28;20430;-79
2024/02/22 02:28:40;;;;;;;0.40;0.40;;;9.20;99.90;;;;;;4968692;28;20447;-79
2024/02/22 02:31:06;;;;;;;0.40;0.40;;;9.20;99.90;;;;;;4968557;29;20482;-78
2024/02/22 02:33:33;;;;;;;0.37;0.37;;;9.10;99.90;;;;;;4968972;28;20454;-78
2024/02/22 02:36:00;;;;;;;0.70;0.47;;;9.00;99.90;;;;;;4969134;28;20455;-78
2024/02/22 02:38:26;;;;;;;0.80;0.50;;;9.00;99.90;;;;;;4968883;28;20446;-78
2024/02/22 02:40:53;;;;;;;0.40;0.30;;;8.90;99.90;;;;;;4968512;28;20474;-78
2024/02/22 02:43:21;;;;;;;0.87;0.40;;;8.90;99.90;;;;;;4968384;29;20450;-79
2024/02/22 02:45:48;;;;;;;1.03;0.50;;;8.80;99.90;;;;;;4967408;28;20531;-79
2024/02/22 02:48:19;;;;;;;0.90;0.43;;;8.90;99.90;;;;;;4967930;28;20446;-79
2024/02/22 02:50:45;;;;;;;0.80;0.57;;;8.80;99.90;;;;;;4967717;29;20525;-79
2024/02/22 02:53:12;;;;;;;0.33;0.33;;;8.80;99.90;;;;;;4966779;28;20446;-79
2024/02/22 02:55:39;;;;;;;0.47;0.40;;;8.70;99.90;;;;;;4966628;29;20450;-79
2024/02/22 02:58:08;;;;;;;0.40;0.40;;;8.70;99.90;;;;;;4966073;28;20454;-79
2024/02/22 03:00:36;;;;;;;0.40;0.40;;;8.70;99.90;;;;;;4965602;29;20446;-79
2024/02/22 03:03:03;;;;;;;0.40;0.40;;;8.60;99.90;;;;;;4966573;28;20469;-79
2024/02/22 03:05:30;;;;;;;0.50;0.40;;;8.60;99.90;;;;;;4965782;29;20438;-79
2024/02/22 03:07:56;;;;;;;0.50;0.40;;;8.60;99.90;;;;;;4966076;28;20450;-79
2024/02/22 03:10:24;;;;;;;0.40;0.30;;;8.60;99.90;;;;;;4964297;29;20493;-79
2024/02/22 03:12:51;;;;;;;0.67;0.40;;;8.60;99.90;;;;;;4965290;29;20465;-79
2024/02/22 03:15:18;;;;;;;0.40;0.40;;;8.60;99.90;;;;;;4965049;29;20454;-79
2024/02/22 03:17:46;;;;;;;2.17;0.90;;;8.50;99.90;;;;;;4964822;29;20439;-79
2024/02/22 03:20:13;;;;;;;1.17;0.70;;;8.50;99.90;;;;;;4965242;29;20459;-79
2024/02/22 03:22:44;;;;;;;0.40;0.30;;;8.50;99.90;;;;;;4963611;29;20994;-79
2024/02/22 03:25:12;;;;;;;0.40;0.40;;;10.10;99.90;;;;;;4962952;29;20437;-79
2024/02/22 03:27:44;;;;;;;0.30;0.30;;;8.30;99.90;;;;;;4962468;28;20939;-79
2024/02/22 03:30:38;;;;;;;1.03;0.40;;;8.20;99.90;;;;;;4961793;29;20486;-79
2024/02/22 03:33:09;;;;;;;0.77;0.40;;;8.20;99.90;;;;;;4961935;28;20482;-79
2024/02/22 03:35:36;;;;;;;1.00;0.63;;;8.50;99.90;;;;;;4962216;28;20457;-79
2024/02/22 03:38:04;;;;;;;0.70;0.40;;;9.50;99.90;;;;;;4960312;28;20469;-79
2024/02/22 03:40:30;;;;;;;0.30;0.30;;;8.10;99.90;;;;;;4964005;29;20951;-79
2024/02/22 03:42:58;;;;;;;0.50;0.40;;;8.10;99.90;;;;;;4968320;28;20478;-79
2024/02/22 03:45:25;;;;;;;0.50;0.40;;;8.10;99.90;;;;;;4965988;28;20935;-79
2024/02/22 03:47:52;;;;;;;0.40;0.40;;;8.10;99.90;;;;;;4964313;28;20446;-79
2024/02/22 03:50:20;;;;;;;0.60;0.40;;;8.00;99.90;;;;;;4964974;28;20486;-79
2024/02/22 03:52:47;;;;;;;0.43;0.40;;;7.90;99.90;;;;;;4964383;28;20450;-79
2024/02/22 03:55:14;;;;;;;0.43;0.43;;;7.90;99.90;;;;;;4962985;29;20525;-79
2024/02/22 03:57:42;;;;;;;0.40;0.40;;;7.90;99.90;;;;;;4962697;29;20458;-79
2024/02/22 04:00:09;;;;;;;0.67;0.40;;;7.90;99.90;;;;;;4962914;28;20454;-79
2024/02/22 04:02:37;;;;;;;1.53;0.50;;;7.90;99.90;;;;;;4962994;28;20499;-79
2024/02/22 04:05:04;;;;;;;1.57;0.57;;;7.90;99.90;;;;;;4962506;29;20994;-79
2024/02/22 04:07:33;;;;;;;0.30;0.30;;;7.90;99.90;;;;;;4962000;29;20454;-79
2024/02/22 04:10:00;;;;;;;0.40;0.37;;;7.80;99.90;;;;;;4961247;29;20478;-79
2024/02/22 04:12:26;;;;;;;0.57;0.30;;;7.80;99.90;;;;;;4962162;28;20473;-79
2024/02/22 04:14:53;;;;;;;0.70;0.30;;;7.70;99.90;;;;;;4961687;29;20454;-79
2024/02/22 04:17:20;;;;;;;0.37;0.30;;;7.70;99.90;;;;;;4961347;29;20815;-79
2024/02/22 04:19:46;;;;;;;0.40;0.30;;;7.60;99.90;;;;;;4961632;28;20457;-79
2024/02/22 04:22:13;;;;;;;0.50;0.40;;;7.60;99.90;;;;;;4961349;28;20490;-79
2024/02/22 04:24:41;;;;;;;0.40;0.40;;;7.60;99.90;;;;;;4962789;29;20447;-79
2024/02/22 04:27:08;;;;;;;0.57;0.57;;;7.60;99.90;;;;;;4962589;28;20454;-79
2024/02/22 04:29:36;;;;;;;0.47;0.47;;;7.60;99.90;;;;;;4962078;28;20455;-79
2024/02/22 04:32:03;;;;;;;0.40;0.30;;;7.60;99.90;;;;;;4962402;28;20820;-79
2024/02/22 04:34:30;;;;;;;0.43;0.43;;;7.50;99.90;;;;;;4962027;28;20939;-80
2024/02/22 04:36:57;;;;;;;0.60;0.40;;;7.50;99.90;;;;;;4961551;29;20449;-80
2024/02/22 04:39:23;;;;;;;0.53;0.43;;;7.50;99.90;;;;;;4962221;29;20805;-80
2024/02/22 04:41:54;;;;;;;0.30;0.30;;;7.60;99.90;;;;;;4961563;29;20462;-80
2024/02/22 04:44:21;;;;;;;0.40;0.40;;;7.60;99.90;;;;;;4961315;29;20439;-80
2024/02/22 04:46:47;;;;;;;1.20;0.47;;;7.60;99.90;;;;;;4960520;28;20446;-80
2024/02/22 04:49:14;;;;;;;0.40;0.37;;;7.60;99.90;;;;;;4959150;28;20955;-80
2024/02/22 04:51:41;;;;;;;0.60;0.60;;;7.60;99.90;;;;;;4959372;29;20494;-80
2024/02/22 04:54:07;;;;;;;0.73;0.40;;;7.50;99.90;;;;;;4959733;28;20450;-80
2024/02/22 04:56:34;;;;;;;1.80;0.37;;;7.60;99.90;;;;;;4959742;28;20454;-80
2024/02/22 04:59:02;;;;;;;0.30;0.30;;;7.50;99.90;;;;;;4960069;29;20810;-80
2024/02/22 05:01:29;;;;;;;0.30;0.30;;;7.50;99.90;;;;;;4958509;29;20549;-80
2024/02/22 05:03:56;;;;;;;0.60;0.50;;;7.50;99.90;;;;;;4958907;29;20461;-80
2024/02/22 05:06:22;;;;;;;0.77;0.40;;;7.50;99.90;;;;;;4958361;28;20803;-80
2024/02/22 05:08:49;;;;;;;0.30;0.30;;;7.50;99.90;;;;;;4958444;29;20446;-80
2024/02/22 05:11:16;;;;;;;0.40;0.40;;;7.50;99.90;;;;;;4957629;28;20864;-80
2024/02/22 05:13:43;;;;;;;0.50;0.50;;;7.60;99.90;;;;;;4957623;28;20942;-79
2024/02/22 05:16:11;;;;;;;0.40;0.30;;;7.50;99.90;;;;;;4957572;28;20450;-79
2024/02/22 05:18:38;;;;;;;0.40;0.40;;;7.60;99.90;;;;;;4957905;29;20442;-79
2024/02/22 05:21:05;;;;;;;1.13;0.50;;;7.60;99.90;;;;;;4957671;28;20493;-79
2024/02/22 05:23:32;;;;;;;0.40;0.40;;;7.60;99.90;;;;;;4958207;29;20461;-79
2024/02/22 05:25:59;;;;;;;0.40;0.40;;;7.60;99.90;;;;;;4957920;29;20450;-79
2024/02/22 05:28:25;;;;;;;0.33;0.33;;;7.50;99.90;;;;;;4957427;29;20450;-79
2024/02/22 05:30:52;;;;;;;0.50;0.40;;;7.60;99.90;;;;;;4957409;29;21019;-79
2024/02/22 05:33:20;;;;;;;1.07;0.70;;;7.60;99.90;;;;;;4957688;29;20458;-79
2024/02/22 05:35:47;;;;;;;0.40;0.40;;;7.50;99.90;;;;;;4957347;28;20971;-79
2024/02/22 05:38:13;;;;;;;1.17;0.70;;;7.50;99.90;;;;;;4957381;29;20832;-79
2024/02/22 05:40:41;;;;;;;0.40;0.40;;;7.50;99.90;;;;;;4958873;29;20461;-79
2024/02/22 05:43:08;;;;;;;1.20;0.57;;;7.50;99.90;;;;;;4957702;28;20541;-79
2024/02/22 05:45:41;;;;;;;0.40;0.30;;;7.50;99.90;;;;;;4956810;29;20435;-79
2024/02/22 05:48:08;;;;;;;0.30;0.30;;;7.50;99.90;;;;;;4957548;29;20497;-79
2024/02/22 05:50:36;;;;;;;0.80;0.73;;;7.50;99.90;;;;;;4956981;29;20490;-79
2024/02/22 05:53:04;;;;;;;2.57;0.40;;;7.60;99.90;;;;;;4961030;28;20450;-79
2024/02/22 05:55:31;;;;;;;0.40;0.30;;;7.60;99.90;;;;;;4960125;29;20461;-79
2024/02/22 05:57:58;;;;;;;0.50;0.50;;;7.60;99.90;;;;;;4960298;28;20446;-79
2024/02/22 06:00:25;;;;;;;0.30;0.30;;;7.60;99.90;;;;;;4960561;28;20453;-79
2024/02/22 06:02:51;;;;;;;0.80;0.50;;;7.60;99.90;;;;;;4963285;28;20438;-79
2024/02/22 06:05:18;;;;;;;0.30;0.30;;;7.60;99.90;;;;;;4963718;28;20449;-79
2024/02/22 06:07:46;;;;;;;1.00;0.40;;;7.60;99.90;;;;;;4962334;29;20441;-79
2024/02/22 06:10:13;;;;;;;0.57;0.40;;;7.60;99.90;;;;;;4962956;29;20446;-79
2024/02/22 06:12:40;;;;;;;0.77;0.30;;;7.60;99.90;;;;;;4962343;29;20470;-79
2024/02/22 06:15:08;;;;;;;0.70;0.70;;;7.60;99.90;;;;;;4962423;28;20454;-79
2024/02/22 06:17:34;;;;;;;0.50;0.50;;;7.60;99.90;;;;;;4963220;29;20446;-79
2024/02/22 06:20:03;;;;;;;0.37;0.33;;;7.50;99.90;;;;;;4962038;29;20450;-79
2024/02/22 06:22:29;;;;;;;0.30;0.30;;;7.50;99.90;;;;;;4962022;29;20544;-79
2024/02/22 06:24:58;;;;;;;0.53;0.30;;;7.50;99.90;;;;;;4962399;28;20446;-79
2024/02/22 06:27:24;;;;;;;0.30;0.30;;;7.50;99.90;;;;;;4962330;29;20450;-80
2024/02/22 06:29:51;;;;;;;0.30;0.30;;;7.60;99.90;;;;;;4961136;29;20453;-80
2024/02/22 06:32:18;;;;;;;2.20;0.40;;;7.60;99.90;;;;;;4961357;28;20995;-80
2024/02/22 06:34:45;;;;;;;0.50;0.50;;;7.60;99.90;;;;;;4961625;28;20898;-80
2024/02/22 06:37:12;;;;;;;0.50;0.50;;;7.60;99.90;;;;;;4961754;28;20450;-80
2024/02/22 06:39:39;;;;;;;1.47;0.53;;;7.60;99.90;;;;;;4961781;29;20454;-79
2024/02/22 06:42:07;;;;;;;0.50;0.50;;;7.60;99.90;;;;;;4961978;29;20471;-79
2024/02/22 06:44:34;;;;;;;0.87;0.70;;;7.60;99.90;;;;;;4961674;28;20504;-79
2024/02/22 06:47:01;;;;;;;0.40;0.30;;;7.60;99.90;;;;;;4961731;28;20814;-79
2024/02/22 06:49:31;;;;;;;0.40;0.30;;;7.60;99.90;;;;;;4961572;28;20458;-79
2024/02/22 06:51:58;;;;;;;1.43;0.30;;;7.60;99.90;;;;;;4962077;28;20517;-79
2024/02/22 06:54:25;;;;;;;1.00;0.33;;;7.70;99.90;;;;;;4961312;29;20461;-79
2024/02/22 06:56:52;;;;;;;0.37;0.33;;;7.60;99.90;;;;;;4961488;29;20455;-79
2024/02/22 06:59:21;;;;;;;0.30;0.30;;;7.70;99.90;;;;;;4960977;28;20450;-79
2024/02/22 07:01:48;;;;;;;0.53;0.53;;;7.70;99.90;;;;;;4961160;29;20541;-79
2024/02/22 07:04:15;;;;;;;0.30;0.30;;;7.70;99.90;;;;;;4961237;28;20465;-80
2024/02/22 07:06:42;;;;;;;1.57;0.50;;;7.70;99.90;;;;;;4961031;29;20461;-80
2024/02/22 07:09:09;;;;;;;0.50;0.43;;;7.70;99.90;;;;;;4960889;28;20450;-80
2024/02/22 07:11:36;;;;;;;1.80;0.70;;;7.70;99.90;;;;;;4960707;28;20493;-80
2024/02/22 07:14:03;;;;;;;0.60;0.50;;;7.70;99.90;;;;;;4960825;29;20450;-80
2024/02/22 07:16:31;;;;;;;0.33;0.27;;;7.70;99.90;;;;;;4960574;29;20940;-80
2024/02/22 07:18:58;;;;;;;2.50;0.70;;;7.70;99.90;;;;;;4960949;28;20454;-79
2024/02/22 07:21:32;;;;;;;0.60;0.47;;;7.70;99.90;;;;;;4960877;28;20486;-79
2024/02/22 07:23:59;;;;;;;1.80;1.00;;;7.70;99.90;;;;;;4961042;29;20431;-79
2024/02/22 07:26:26;;;;;;;0.40;0.40;;;7.70;99.90;;;;;;4959582;29;20454;-79
2024/02/22 07:28:52;;;;;;;0.47;0.30;;;7.70;99.90;;;;;;4959193;28;20790;-80
2024/02/22 07:31:19;;;;;;;0.40;0.40;;;7.60;99.90;;;;;;4962323;28;20497;-79
2024/02/22 07:33:47;;;;;;;1.07;0.50;;;7.70;99.90;;;;;;4964288;28;20460;-79
2024/02/22 07:36:14;;;;;;;1.13;0.80;;;7.70;99.90;;;;;;4961322;28;20446;-79
2024/02/22 07:38:42;;;;;;;3.43;0.50;;;7.70;99.90;;;;;;4961339;29;20442;-79
2024/02/22 07:41:15;;;;;;;0.83;0.70;;;7.80;99.90;;;;;;4961196;28;20467;-79
2024/02/22 07:43:42;;;;;;;0.53;0.40;;;7.70;99.90;;;;;;4960674;29;20438;-79
2024/02/22 07:46:11;;;;;;;0.60;0.60;;;7.70;99.90;;;;;;4961257;29;20474;-79
2024/02/22 07:48:38;;;;;;;0.77;0.50;;;7.70;99.90;;;;;;4960848;29;20900;-80
2024/02/22 07:51:06;;;;;;;0.63;0.60;;;7.80;99.90;;;;;;4960686;29;20498;-80
2024/02/22 07:53:34;;;;;;;1.23;0.97;;;7.90;99.90;;;;;;4960351;29;20433;-80
2024/02/22 07:56:02;;;;;;;0.37;0.37;;;7.80;99.90;;;;;;4960740;28;20921;-79
2024/02/22 07:58:29;;;;;;;1.27;0.50;;;7.90;99.90;;;;;;4960428;29;20446;-79
2024/02/22 08:00:58;;;;;;;0.40;0.40;;;7.90;99.90;;;;;;4960277;29;20477;-79
2024/02/22 08:03:25;;;;;;;0.60;0.50;;;7.90;99.90;;;;;;4961237;28;20451;-80
2024/02/22 08:05:52;;;;;;;0.37;0.27;;;7.80;99.90;;;;;;4960755;29;20956;-80
2024/02/22 08:08:21;;;;;;;0.30;0.30;;;7.80;99.90;;;;;;4960529;28;20505;-80
2024/02/22 08:10:47;;;;;;;0.40;0.40;;;7.80;99.90;;;;;;4960875;28;20466;-80
2024/02/22 08:13:14;;;;;;;0.33;0.30;;;7.80;99.90;;;;;;4960899;29;20434;-80
2024/02/22 08:15:42;;;;;;;0.47;0.40;;;7.80;99.90;;;;;;4960928;28;20458;-80
2024/02/22 08:18:09;;;;;;;0.47;0.47;;;7.80;99.90;;;;;;4960886;29;20454;-80
2024/02/22 08:20:37;;;;;;;0.40;0.40;;;7.80;99.90;;;;;;4959859;28;20457;-80
2024/02/22 08:23:08;;;;;;;0.40;0.33;;;7.90;99.90;;;;;;4959615;28;20451;-80
2024/02/22 08:25:37;;;;;;;0.37;0.30;;;7.90;99.90;;;;;;4960710;29;20438;-80
2024/02/22 08:28:04;;;;;;;0.30;0.27;;;7.90;99.90;;;;;;4959742;29;20525;-80
2024/02/22 08:30:31;;;;;;;0.30;0.30;;;8.00;99.90;;;;;;4960224;29;20457;-80
2024/02/22 08:32:58;;;;;;;0.40;0.30;;;7.90;99.90;;;;;;4960028;29;20552;-80
2024/02/22 08:35:25;;;;;;;0.50;0.30;;;7.90;99.90;;;;;;4960281;28;20454;-80
2024/02/22 08:37:52;;;;;;;0.30;0.30;;;7.90;99.90;;;;;;4960133;28;20458;-80
2024/02/22 08:40:19;;;;;;;0.30;0.20;;;7.90;99.90;;;;;;4959608;29;20450;-80
2024/02/22 08:42:47;;;;;;;0.50;0.50;;;7.90;99.90;;;;;;4959593;29;20502;-80
2024/02/22 08:45:14;;;;;;;0.50;0.30;;;8.00;99.90;;;;;;4959949;29;20461;-80
2024/02/22 08:47:41;;;;;;;0.30;0.30;;;8.00;99.90;;;;;;4959990;29;20447;-80
2024/02/22 08:50:09;;;;;;;0.30;0.30;;;8.10;99.90;;;;;;4959291;28;20454;-80
2024/02/22 08:52:37;;;;;;;0.30;0.30;;;8.20;99.90;;;;;;4958729;29;20545;-80
2024/02/22 08:55:04;;;;;;;0.30;0.30;;;8.10;99.90;;;;;;4958904;29;20486;-80
2024/02/22 08:57:30;;;;;;;0.40;0.30;;;8.20;99.90;;;;;;4959284;29;20447;-80
2024/02/22 08:59:59;;;;;;;0.53;0.40;;;8.20;99.90;;;;;;4959405;28;20454;-80
2024/02/22 09:02:25;;;;;;;0.30;0.30;;;8.30;99.90;;;;;;4959114;28;20465;-80
2024/02/22 09:04:52;;;;;;;0.30;0.30;;;8.30;99.90;;;;;;4959367;28;20461;-80
2024/02/22 09:07:19;;;;;;;0.30;0.30;;;8.20;99.90;;;;;;4959404;29;20447;-80
2024/02/22 09:09:46;;;;;;;0.40;0.30;;;8.30;99.90;;;;;;4959001;28;20434;-80
2024/02/22 09:12:13;;;;;;;0.33;0.27;;;8.30;99.90;;;;;;4959441;29;20490;-80
2024/02/22 09:14:41;;;;;;;0.30;0.30;;;8.30;99.90;;;;;;4958790;28;20509;-80
2024/02/22 09:17:09;;;;;;;0.30;0.20;;;8.30;99.90;;;;;;4959017;28;20458;-80
2024/02/22 09:19:35;;;;;;;0.30;0.30;;;8.30;99.90;;;;;;4959142;28;20928;-79
2024/02/22 09:22:02;;;;;;;0.30;0.30;;;8.30;99.90;;;;;;4958173;29;21089;-80
2024/02/22 09:24:29;;;;;;;0.30;0.30;;;8.30;99.90;;;;;;4959353;29;20454;-79
2024/02/22 09:26:56;;;;;;;0.50;0.43;;;8.30;99.90;;;;;;4959522;28;20454;-82
2024/02/22 09:29:24;;;;;;;0.47;0.30;;;8.30;99.90;;;;;;4959332;28;20450;-79
2024/02/22 09:31:51;;;;;;;0.30;0.30;;;8.30;99.90;;;;;;4957717;29;20490;-79
2024/02/22 09:34:21;;;;;;;0.30;0.20;;;8.40;99.90;;;;;;4957970;28;21021;-79
2024/02/22 09:36:48;;;;;;;0.30;0.20;;;8.40;99.90;;;;;;4960462;29;20955;-79
2024/02/22 09:39:15;;;;;;;0.30;0.20;;;8.40;99.90;;;;;;4962522;29;20457;-79
2024/02/22 09:41:43;;;;;;;0.30;0.30;;;8.50;99.90;;;;;;4962689;29;20477;-79
2024/02/22 09:44:10;;;;;;;0.30;0.20;;;8.50;99.90;;;;;;4962543;29;20454;-79
2024/02/22 09:46:38;;;;;;;0.30;0.30;;;8.60;99.90;;;;;;4962110;28;20485;-79
2024/02/22 09:49:04;;;;;;;0.40;0.30;;;8.50;99.90;;;;;;4962185;29;20435;-79
2024/02/22 09:51:35;;;;;;;0.87;0.30;;;8.50;99.90;;;;;;4962715;28;20843;-79
2024/02/22 09:54:02;;;;;;;0.30;0.30;;;8.60;99.90;;;;;;4962816;29;20805;-79
2024/02/22 09:56:29;;;;;;;0.30;0.30;;;8.60;99.90;;;;;;4962029;28;20518;-80
2024/02/22 09:58:56;;;;;;;0.60;0.30;;;8.70;99.90;;;;;;4963850;29;20458;-80
2024/02/22 10:01:24;;;;;;;0.30;0.20;;;8.80;99.90;;;;;;4963147;28;20983;-80
2024/02/22 10:03:51;;;;;;;0.30;0.20;;;8.90;99.90;;;;;;4963990;28;20465;-80
2024/02/22 10:06:18;;;;;;;0.30;0.30;;;8.90;99.90;;;;;;4963642;29;20458;-79
2024/02/22 10:08:48;;;;;;;0.40;0.30;;;9.00;99.90;;;;;;4963527;28;20454;-79
2024/02/22 10:11:19;;;;;;;1.33;0.57;;;8.90;99.90;;;;;;4963115;29;20464;-79
2024/02/22 10:13:46;;;;;;;0.30;0.30;;;8.80;99.90;;;;;;4963735;29;20474;-80
2024/02/22 10:16:14;;;;;;;1.07;0.50;;;8.80;99.90;;;;;;4962171;29;20415;-80
2024/02/22 10:18:41;;;;;;;0.50;0.30;;;8.90;99.90;;;;;;4962980;28;20482;-80
2024/02/22 10:21:16;;;;;;;0.30;0.30;;;8.90;99.90;;;;;;4962776;28;21007;-80
2024/02/22 10:23:46;;;;;;;0.40;0.30;;;8.90;99.90;;;;;;4962829;28;20441;-80
2024/02/22 10:26:12;;;;;;;0.30;0.30;;;8.90;99.90;;;;;;4963362;29;20830;-80
2024/02/22 10:28:40;;;;;;;0.30;0.20;;;9.00;99.90;;;;;;4962290;28;20507;-80
2024/02/22 10:31:08;;;;;;;0.60;0.50;;;9.00;99.90;;;;;;4962153;29;20489;-80
2024/02/22 10:33:35;;;;;;;0.30;0.30;;;9.00;99.90;;;;;;4962146;29;20484;-80
2024/02/22 10:36:02;;;;;;;0.30;0.30;;;8.90;99.90;;;;;;4959333;29;20935;-79
2024/02/22 10:38:30;;;;;;;0.40;0.30;;;9.00;99.90;;;;;;4961331;28;20450;-79
2024/02/22 10:41:01;;;;;;;0.40;0.33;;;9.10;99.90;;;;;;4959904;28;20529;-79
2024/02/22 10:43:27;;;;;;;0.40;0.30;;;9.10;99.90;;;;;;4959771;29;20426;-79
2024/02/22 10:45:57;;;;;;;0.30;0.23;;;9.10;99.90;;;;;;4960520;28;20454;-80
2024/02/22 10:48:26;;;;;;;0.30;0.20;;;9.20;99.90;;;;;;4961103;29;20447;-80
2024/02/22 10:50:53;;;;;;;0.30;0.30;;;9.20;99.90;;;;;;4961017;29;20474;-80
2024/02/22 10:53:22;;;;;;;0.30;0.20;;;9.10;99.90;;;;;;4961637;29;20488;-80
2024/02/22 10:55:50;;;;;;;0.40;0.30;;;9.00;99.90;;;;;;4960787;28;20454;-80
2024/02/22 10:58:21;;;;;;;0.30;0.30;;;9.10;99.90;;;;;;4960728;28;20501;-80
2024/02/22 11:00:49;;;;;;;0.30;0.20;;;9.10;99.90;;;;;;4960023;29;20465;-80
2024/02/22 11:03:17;;;;;;;0.40;0.30;;;9.00;99.90;;;;;;4959453;28;20442;-78
2024/02/22 11:05:47;;;;;;;0.30;0.20;;;8.90;99.90;;;;;;4960386;28;20446;-79
2024/02/22 11:08:20;;;;;;;0.30;0.20;;;9.00;99.90;;;;;;4959576;29;20920;-78
2024/02/22 11:10:47;;;;;;;0.30;0.30;;;9.00;99.90;;;;;;4959512;29;20825;-79
2024/02/22 11:13:15;;;;;;;0.30;0.30;;;9.00;99.90;;;;;;4959753;28;20486;-79
2024/02/22 11:15:43;;;;;;;0.30;0.20;;;9.00;99.90;;;;;;4960198;28;20442;-79
2024/02/22 11:18:09;;;;;;;0.40;0.30;;;9.00;99.90;;;;;;4959043;29;20940;-79
2024/02/22 11:20:37;;;;;;;0.40;0.30;;;8.90;99.90;;;;;;4959311;28;20438;-79
2024/02/22 11:23:13;;;;;;;0.40;0.40;;;9.00;99.90;;;;;;4973396;23;20994;-79
2024/02/22 11:25:40;;;;;;;0.40;0.30;;;8.90;99.90;;;;;;4960292;29;20446;-82
2024/02/22 11:28:08;;;;;;;0.60;0.60;;;8.90;99.90;;;;;;4960488;29;20430;-82
2024/02/22 11:30:35;;;;;;;0.60;0.27;;;8.90;99.90;;;;;;4960710;29;20441;-82
2024/02/22 11:33:03;;;;;;;0.33;0.30;;;8.80;99.90;;;;;;4960412;29;20493;-82
2024/02/22 11:35:30;;;;;;;0.30;0.30;;;8.80;99.90;;;;;;4962004;29;20446;-83
2024/02/22 11:37:58;;;;;;;0.30;0.30;;;8.80;99.90;;;;;;4961767;29;20434;-82
2024/02/22 11:40:26;;;;;;;0.30;0.20;;;8.80;99.90;;;;;;4961220;28;20450;-82
2024/02/22 11:42:56;;;;;;;0.50;0.40;;;8.80;99.90;;;;;;4961214;29;20494;-82
2024/02/22 11:45:22;;;;;;;0.30;0.30;;;8.80;99.90;;;;;;4961472;29;20501;-82
2024/02/22 11:47:49;;;;;;;0.30;0.20;;;8.80;99.90;;;;;;4960697;29;20818;-82
2024/02/22 11:50:19;;;;;;;0.30;0.30;;;8.90;99.90;;;;;;4960145;29;20435;-82
2024/02/22 11:52:46;;;;;;;0.50;0.30;;;9.00;99.90;;;;;;4959948;29;20912;-81
2024/02/22 11:55:13;;;;;;;0.30;0.20;;;9.10;99.90;;;;;;4960497;29;20446;-83
2024/02/22 11:57:41;;;;;;;1.03;0.30;;;9.20;99.90;;;;;;4960069;28;20458;-82
2024/02/22 12:00:09;;;;;;;0.30;0.30;;;9.30;99.90;;;;;;4960374;28;20455;-82
2024/02/22 12:02:37;;;;;;;0.47;0.47;;;9.40;99.90;;;;;;4960195;29;20446;-82
2024/02/22 12:05:05;;;;;;;0.30;0.20;;;9.50;99.90;;;;;;4960028;29;20486;-82
2024/02/22 12:07:34;;;;;;;0.30;0.20;;;9.50;99.90;;;;;;4960138;29;20947;-82
2024/02/22 12:10:01;;;;;;;0.60;0.30;;;9.60;99.90;;;;;;4959573;29;20943;-80
2024/02/22 12:12:27;;;;;;;0.30;0.20;;;9.60;99.90;;;;;;4959929;29;20482;-80
2024/02/22 12:14:58;;;;;;;0.30;0.30;;;9.60;99.90;;;;;;4959817;28;20454;-80
2024/02/22 12:17:26;;;;;;;0.30;0.20;;;9.60;99.90;;;;;;4959759;28;20464;-80
2024/02/22 12:19:54;;;;;;;0.70;0.30;;;9.50;99.90;;;;;;4959986;29;20454;-80
2024/02/22 12:22:21;;;;;;;0.30;0.20;;;9.40;99.90;;;;;;4959788;28;20854;-80
2024/02/22 12:24:50;;;;;;;0.60;0.30;;;9.30;99.90;;;;;;4959195;28;20831;-80
2024/02/22 12:27:17;;;;;;;0.30;0.20;;;9.20;99.90;;;;;;4959870;28;20465;-80
2024/02/22 12:29:44;;;;;;;0.40;0.30;;;9.20;99.90;;;;;;4959804;28;20446;-80
2024/02/22 12:32:12;;;;;;;0.40;0.30;;;9.20;99.90;;;;;;4959460;28;20456;-80
2024/02/22 12:34:38;;;;;;;0.30;0.30;;;9.10;99.90;;;;;;4958937;29;20845;-80
2024/02/22 12:37:05;;;;;;;0.30;0.30;;;9.10;99.90;;;;;;4959379;28;20450;-80
2024/02/22 12:39:32;;;;;;;0.73;0.40;;;9.10;99.90;;;;;;4959107;29;20458;-80
2024/02/22 12:42:01;;;;;;;0.40;0.30;;;9.20;99.90;;;;;;4959262;28;20446;-79
2024/02/22 12:44:27;;;;;;;0.30;0.30;;;9.30;99.90;;;;;;4959341;29;20517;-80
2024/02/22 12:46:56;;;;;;;1.17;0.40;;;9.30;99.90;;;;;;4958901;29;20443;-80
2024/02/22 12:49:23;;;;;;;0.40;0.30;;;9.30;99.90;;;;;;4959552;29;20454;-80
2024/02/22 12:51:50;;;;;;;0.40;0.30;;;9.30;99.90;;;;;;4959381;29;20454;-80
2024/02/22 12:54:22;;;;;;;0.30;0.30;;;9.20;99.90;;;;;;4959369;29;20498;-79
2024/02/22 12:56:49;;;;;;;0.50;0.40;;;9.10;99.90;;;;;;4969036;29;20435;-79